Terminal Aerodrome Forecast
Issued by NWS Jackson, KY

Home | Current Version | Previous Version | Text Only | Print | Product List | Glossary On
Versions: 1 2 3 4 5 6 7 8 9 10 11 12 13 14 15 16 17 18 19 20 21
792
FTUS43 KJKL 030536
TAFJKL
TAF
KJKL 030536Z 0306/0406 VRB03KT 1/2SM -SHRA FG OVC003
     FM031000 VRB03KT P6SM OVC008
     FM031200 VRB03KT P6SM OVC015
     FM031400 29004KT P6SM OVC025
     FM031800 28006KT P6SM OVC035=

USA.gov is the U.S. government's official web portal to all federal, state and local government web resources and services.